Time;durP1;ratioP1;P1;durP2;ratioP2;P2;SDS_P1;SDS_P2;PMS_P1;PMS_P2;Temp;Humidity;BMP_temperature;BMP_pressure;BME280_temperature;BME280_humidity;BME280_pressure;Samples;Min_cycle;Max_cycle;Signal;HPM_P1;HPM_P2
2023/01/31 00:00:43;;;;;;;18.50;8.97;;;4.50;1.00;;;;;;5011034;28;20225;-72
2023/01/31 00:03:09;;;;;;;19.73;9.47;;;4.40;2.70;;;;;;5012518;28;20202;-72
2023/01/31 00:05:34;;;;;;;20.60;8.53;;;4.30;4.90;;;;;;5011024;28;20389;-72
2023/01/31 00:08:00;;;;;;;13.57;8.60;;;4.40;4.20;;;;;;5011381;28;20228;-72
2023/01/31 00:10:26;;;;;;;13.73;8.80;;;4.30;5.30;;;;;;5004481;28;20183;-71
2023/01/31 00:12:51;;;;;;;20.77;9.53;;;4.30;5.90;;;;;;5009320;28;20187;-73
2023/01/31 00:15:17;;;;;;;17.07;9.03;;;4.30;5.80;;;;;;5010708;28;20684;-70
2023/01/31 00:17:43;;;;;;;18.10;9.53;;;4.30;6.00;;;;;;5010240;28;20261;-72
2023/01/31 00:20:10;;;;;;;14.20;8.80;;;4.30;5.20;;;;;;5012373;28;20186;-72
2023/01/31 00:22:36;;;;;;;17.40;10.40;;;4.30;5.70;;;;;;5011228;28;20519;-72
2023/01/31 00:25:01;;;;;;;13.07;8.60;;;4.30;6.20;;;;;;5011186;28;20456;-72
2023/01/31 00:27:27;;;;;;;15.03;8.90;;;4.70;5.50;;;;;;5011173;28;20273;-74
2023/01/31 00:29:52;;;;;;;13.87;8.57;;;4.40;4.90;;;;;;5009814;28;20269;-71
2023/01/31 00:32:18;;;;;;;15.40;9.13;;;4.30;5.60;;;;;;5008661;28;20191;-73
2023/01/31 00:34:43;;;;;;;15.17;9.50;;;4.40;4.90;;;;;;5011805;28;20210;-71
2023/01/31 00:37:09;;;;;;;16.40;8.90;;;4.40;4.80;;;;;;5010885;28;20261;-71
2023/01/31 00:39:34;;;;;;;16.67;8.70;;;4.40;6.50;;;;;;5010165;28;20285;-71
2023/01/31 00:42:00;;;;;;;15.80;9.70;;;4.40;4.60;;;;;;5010404;28;20202;-72
2023/01/31 00:44:25;;;;;;;18.40;9.00;;;4.40;4.00;;;;;;5009803;28;20199;-73
2023/01/31 00:46:51;;;;;;;15.73;9.10;;;4.40;5.10;;;;;;5011633;28;20186;-72
2023/01/31 00:49:16;;;;;;;18.87;9.60;;;4.40;4.60;;;;;;5010407;28;20186;-72
2023/01/31 00:51:43;;;;;;;15.63;9.20;;;4.40;4.50;;;;;;5011038;28;20214;-70
2023/01/31 00:54:09;;;;;;;13.50;8.47;;;4.40;4.10;;;;;;5008861;28;20661;-72
2023/01/31 00:56:36;;;;;;;17.57;9.70;;;4.40;3.50;;;;;;5010660;28;20436;-72
2023/01/31 00:59:07;;;;;;;18.97;9.30;;;4.40;4.30;;;;;;5009042;28;20485;-73
2023/01/31 01:01:33;;;;;;;16.13;8.40;;;4.40;3.50;;;;;;5010100;28;20436;-75
2023/01/31 01:03:59;;;;;;;18.23;9.53;;;4.50;3.50;;;;;;5009086;28;20556;-72
2023/01/31 01:06:26;;;;;;;16.93;9.60;;;4.50;3.30;;;;;;5011404;28;20414;-73
2023/01/31 01:08:52;;;;;;;15.43;9.33;;;4.70;3.90;;;;;;5009456;28;20266;-70
2023/01/31 01:11:37;;;;;;;15.13;9.20;;;4.50;2.90;;;;;;5009719;28;20525;-73
2023/01/31 01:14:03;;;;;;;16.73;9.43;;;4.50;2.80;;;;;;5022191;28;20244;-72
2023/01/31 01:16:34;;;;;;;18.60;9.37;;;4.50;3.30;;;;;;5009583;28;20445;-72
2023/01/31 01:19:09;;;;;;;18.10;9.27;;;4.40;2.70;;;;;;5010780;28;20272;-74
2023/01/31 01:21:38;;;;;;;16.97;9.67;;;4.40;2.70;;;;;;5005362;28;20437;-72
2023/01/31 01:24:05;;;;;;;21.63;9.77;;;4.70;3.40;;;;;;5008144;28;20923;-72
2023/01/31 01:26:32;;;;;;;15.93;9.03;;;4.40;3.70;;;;;;5009267;28;20496;-72
2023/01/31 01:29:00;;;;;;;23.03;10.20;;;4.50;3.90;;;;;;5010386;28;20433;-74
2023/01/31 01:31:29;;;;;;;16.33;8.77;;;4.50;4.70;;;;;;5008206;28;20499;-71
2023/01/31 01:34:00;;;;;;;20.43;9.67;;;4.40;4.30;;;;;;5007800;28;20534;-72
2023/01/31 01:36:26;;;;;;;15.20;9.53;;;4.40;5.20;;;;;;5008575;28;20445;-72
2023/01/31 01:38:52;;;;;;;23.43;9.50;;;4.40;4.00;;;;;;5008929;28;20590;-72
2023/01/31 01:41:18;;;;;;;20.67;10.30;;;4.40;3.70;;;;;;5009310;28;21014;-72
2023/01/31 01:43:52;;;;;;;15.87;9.97;;;4.40;2.80;;;;;;5008105;28;20673;-72
2023/01/31 01:46:29;;;;;;;21.93;9.30;;;4.60;4.60;;;;;;5010417;28;20197;-72
2023/01/31 01:49:16;;;;;;;19.20;9.70;;;4.40;2.30;;;;;;5006586;28;20440;-73
2023/01/31 01:51:43;;;;;;;17.77;10.20;;;4.40;3.20;;;;;;5005761;28;20503;-72
2023/01/31 01:54:13;;;;;;;16.80;9.03;;;4.20;2.20;;;;;;5007297;28;20481;-72
2023/01/31 01:56:44;;;;;;;15.10;9.73;;;4.50;1.70;;;;;;5007515;28;20429;-72
2023/01/31 01:59:15;;;;;;;16.07;9.53;;;4.60;2.50;;;;;;5009660;28;20627;-75
2023/01/31 02:01:41;;;;;;;21.93;9.60;;;4.40;1.70;;;;;;5007581;28;20811;-73
2023/01/31 02:04:17;;;;;;;18.87;9.00;;;4.40;2.60;;;;;;5009789;28;21043;-72
2023/01/31 02:06:44;;;;;;;20.57;10.17;;;4.40;3.90;;;;;;5007733;28;20445;-72
2023/01/31 02:09:33;;;;;;;17.03;9.40;;;4.40;3.50;;;;;;5006689;28;20433;-73
2023/01/31 02:11:58;;;;;;;18.23;9.60;;;4.40;3.10;;;;;;5005012;28;20483;-73
2023/01/31 02:14:24;;;;;;;16.90;9.93;;;4.40;2.00;;;;;;5009162;28;20493;-71
2023/01/31 02:16:50;;;;;;;18.40;9.30;;;4.40;3.30;;;;;;5008796;28;20569;-72
2023/01/31 02:19:34;;;;;;;18.63;9.20;;;4.50;2.20;;;;;;5008319;28;20429;-72
2023/01/31 02:22:00;;;;;;;16.50;9.60;;;4.50;3.00;;;;;;5008595;28;20190;-72
2023/01/31 02:24:34;;;;;;;22.23;8.90;;;4.40;2.20;;;;;;5006904;28;20994;-71
2023/01/31 02:27:36;;;;;;;18.57;9.40;;;4.40;3.10;;;;;;5007735;28;20560;-69
2023/01/31 02:30:27;;;;;;;16.77;9.00;;;4.50;2.70;;;;;;5006353;28;20440;-72
2023/01/31 02:33:04;;;;;;;16.47;9.17;;;4.50;2.30;;;;;;5009874;28;20440;-72
2023/01/31 02:35:35;;;;;;;21.37;9.47;;;4.50;1.00;;;;;;5007877;28;20831;-72
2023/01/31 02:38:41;;;;;;;21.03;9.87;;;4.50;1.30;;;;;;5006945;28;20437;-72
2023/01/31 02:41:51;;;;;;;18.70;9.50;;;4.50;1.10;;;;;;5009507;28;20779;-71
2023/01/31 02:47:58;;;;;;;18.57;9.07;;;4.40;2.20;;;;;;5008164;28;20452;-75
2023/01/31 02:50:29;;;;;;;24.50;10.40;;;4.30;1.40;;;;;;4997910;28;20800;-72
2023/01/31 02:53:05;;;;;;;20.30;9.67;;;4.50;3.40;;;;;;5008605;28;20800;-72
2023/01/31 02:58:37;;;;;;;18.43;9.97;;;4.30;2.30;;;;;;5009763;28;20499;-73
2023/01/31 03:01:04;;;;;;;16.03;9.70;;;4.30;1.10;;;;;;5007227;28;20444;-72
2023/01/31 03:03:34;;;;;;;19.60;9.53;;;4.30;1.00;;;;;;5009785;28;20567;-71
2023/01/31 03:06:09;;;;;;;22.93;10.20;;;4.80;1.00;;;;;;5005986;28;20461;-73
2023/01/31 03:08:36;;;;;;;16.93;9.70;;;4.60;1.20;;;;;;5008255;28;20437;-73
2023/01/31 03:11:04;;;;;;;19.87;9.80;;;4.30;3.20;;;;;;4998803;28;20503;-72
2023/01/31 03:13:47;;;;;;;19.73;10.43;;;4.30;3.10;;;;;;5007748;28;20998;-72
2023/01/31 03:19:19;;;;;;;17.60;9.50;;;4.10;3.40;;;;;;5010849;28;20439;-72
2023/01/31 03:22:05;;;;;;;19.87;10.50;;;4.00;2.20;;;;;;5013551;28;20776;-72
2023/01/31 03:24:32;;;;;;;28.27;10.00;;;4.00;4.00;;;;;;5004809;28;20468;-72
2023/01/31 03:27:01;;;;;;;21.07;9.00;;;4.00;2.80;;;;;;5011211;28;20447;-75
2023/01/31 03:29:28;;;;;;;17.83;8.83;;;4.00;3.80;;;;;;5010382;28;20815;-71
2023/01/31 03:31:59;;;;;;;15.73;8.63;;;4.00;2.90;;;;;;5011957;28;20511;-74
2023/01/31 03:34:25;;;;;;;26.70;9.57;;;3.90;3.60;;;;;;5012258;28;20475;-73
2023/01/31 03:37:23;;;;;;;17.63;9.67;;;3.80;3.50;;;;;;5013037;28;20432;-71
2023/01/31 03:40:18;;;;;;;18.83;8.70;;;3.80;4.50;;;;;;5011612;28;20961;-73
2023/01/31 03:43:13;;;;;;;17.60;8.50;;;3.70;4.60;;;;;;5012013;28;20476;-72
2023/01/31 03:45:52;;;;;;;21.83;10.07;;;3.60;5.40;;;;;;5007826;28;20461;-72
2023/01/31 03:48:21;;;;;;;18.83;9.40;;;3.60;6.30;;;;;;5010749;28;20919;-73
2023/01/31 03:50:56;;;;;;;17.53;8.50;;;3.50;7.40;;;;;;5011338;28;20967;-72
2023/01/31 03:53:28;;;;;;;18.30;9.97;;;3.40;7.80;;;;;;5011144;28;20439;-71
2023/01/31 03:56:02;;;;;;;18.93;8.83;;;3.40;7.90;;;;;;5011596;28;20531;-72
2023/01/31 03:58:31;;;;;;;15.67;8.57;;;3.40;9.50;;;;;;5010320;28;20456;-72
2023/01/31 04:01:00;;;;;;;16.97;9.20;;;3.80;10.00;;;;;;5011167;28;20962;-72
2023/01/31 04:03:38;;;;;;;20.60;9.73;;;3.70;9.70;;;;;;5012503;28;20824;-73
2023/01/31 04:06:04;;;;;;;21.63;9.77;;;3.70;10.70;;;;;;5010300;28;20828;-72
2023/01/31 04:08:31;;;;;;;27.03;9.83;;;3.20;11.40;;;;;;5012316;28;20432;-73
2023/01/31 04:10:59;;;;;;;18.70;8.73;;;3.10;11.60;;;;;;5006577;28;20438;-74
2023/01/31 04:13:24;;;;;;;24.93;9.80;;;3.20;13.20;;;;;;5007174;28;20463;-72
2023/01/31 04:15:50;;;;;;;18.67;9.20;;;3.00;13.50;;;;;;5008312;28;20470;-72
2023/01/31 04:18:15;;;;;;;18.20;8.90;;;3.00;15.20;;;;;;5017244;28;20186;-74
2023/01/31 04:20:41;;;;;;;22.07;9.77;;;3.40;14.90;;;;;;5010623;28;20669;-72
2023/01/31 04:23:06;;;;;;;20.50;9.53;;;2.90;14.90;;;;;;5011951;28;20230;-72
2023/01/31 04:25:32;;;;;;;14.90;8.40;;;3.00;16.00;;;;;;5011497;28;20250;-71
2023/01/31 04:27:57;;;;;;;25.90;9.63;;;2.80;14.60;;;;;;5011230;28;20269;-72
2023/01/31 04:30:23;;;;;;;22.00;10.27;;;3.20;15.80;;;;;;5014372;22;20223;-79
2023/01/31 04:32:48;;;;;;;21.67;9.50;;;2.70;14.80;;;;;;4989462;28;20191;-78
2023/01/31 04:35:14;;;;;;;23.90;10.10;;;3.00;13.80;;;;;;4991417;28;20195;-79
2023/01/31 04:37:39;;;;;;;20.10;10.10;;;2.50;14.30;;;;;;4992365;28;20187;-78
2023/01/31 04:40:06;;;;;;;18.50;10.17;;;2.40;14.40;;;;;;4990138;28;20686;-78
2023/01/31 04:42:31;;;;;;;21.67;9.40;;;2.40;15.90;;;;;;4991673;28;20265;-79
2023/01/31 04:44:57;;;;;;;21.00;10.67;;;2.50;18.00;;;;;;4990751;28;20537;-78
2023/01/31 04:47:22;;;;;;;22.93;9.83;;;2.60;18.70;;;;;;4990762;28;20194;-78
2023/01/31 04:49:48;;;;;;;22.80;10.93;;;2.60;17.70;;;;;;4991714;28;20203;-79
2023/01/31 04:52:13;;;;;;;26.93;11.90;;;2.20;20.40;;;;;;4990663;28;20191;-75
2023/01/31 04:54:40;;;;;;;22.60;10.53;;;2.10;18.70;;;;;;4991153;28;20191;-77
2023/01/31 04:57:06;;;;;;;45.33;19.10;;;2.10;20.00;;;;;;4988227;28;20179;-76
2023/01/31 04:59:31;;;;;;;44.20;19.50;;;2.40;19.60;;;;;;4991548;28;20513;-78
2023/01/31 05:01:57;;;;;;;37.60;15.43;;;2.00;20.70;;;;;;4988105;28;20668;-77
2023/01/31 05:04:24;;;;;;;22.63;10.73;;;1.90;20.50;;;;;;4991959;28;20226;-79
2023/01/31 05:06:49;;;;;;;22.30;10.60;;;1.80;20.20;;;;;;4989598;28;20183;-78
2023/01/31 05:09:16;;;;;;;25.30;11.43;;;2.20;20.40;;;;;;4990085;28;20438;-77
2023/01/31 05:11:42;;;;;;;25.10;12.17;;;1.70;23.30;;;;;;4991085;28;20523;-78
2023/01/31 05:14:08;;;;;;;29.43;12.53;;;1.70;23.60;;;;;;4990119;28;20808;-78
2023/01/31 05:16:34;;;;;;;22.43;10.40;;;1.60;26.20;;;;;;4992166;28;20434;-78
2023/01/31 05:19:00;;;;;;;37.60;13.60;;;1.70;23.20;;;;;;4987312;28;20211;-79
2023/01/31 05:21:25;;;;;;;37.07;17.20;;;1.90;21.30;;;;;;4988837;28;20704;-79
2023/01/31 05:23:51;;;;;;;38.17;17.20;;;1.80;24.40;;;;;;4991524;28;20462;-78
2023/01/31 05:26:16;;;;;;;34.60;15.93;;;2.00;28.30;;;;;;4990019;28;20188;-78
2023/01/31 05:28:42;;;;;;;37.23;17.03;;;1.50;32.00;;;;;;4990015;28;20233;-79
2023/01/31 05:31:08;;;;;;;42.43;17.97;;;1.50;31.90;;;;;;4991171;28;20191;-78
2023/01/31 05:33:34;;;;;;;30.93;14.93;;;1.40;31.90;;;;;;4987717;28;20274;-75
2023/01/31 05:36:00;;;;;;;30.90;14.47;;;1.50;32.00;;;;;;4990181;28;20524;-73
2023/01/31 05:38:25;;;;;;;31.40;14.17;;;1.40;25.20;;;;;;4988516;28;20187;-79
2023/01/31 05:40:51;;;;;;;79.77;32.23;;;1.60;27.20;;;;;;4991684;28;20191;-78
2023/01/31 05:43:16;;;;;;;73.17;25.67;;;1.60;32.00;;;;;;4985864;28;20210;-78
2023/01/31 05:45:42;;;;;;;63.13;24.90;;;1.30;31.90;;;;;;4987949;28;20194;-78
2023/01/31 05:48:08;;;;;;;63.27;24.47;;;0.90;31.40;;;;;;4987745;28;20209;-78
2023/01/31 05:50:34;;;;;;;37.47;15.20;;;1.70;32.10;;;;;;4989845;28;20442;-77
2023/01/31 05:53:02;;;;;;;45.40;17.77;;;1.70;29.60;;;;;;4989332;28;20195;-76
2023/01/31 05:55:28;;;;;;;38.43;17.80;;;1.20;30.50;;;;;;4987063;28;20190;-76
2023/01/31 05:57:54;;;;;;;33.23;14.30;;;1.20;26.90;;;;;;4988515;28;20529;-78
2023/01/31 06:00:20;;;;;;;32.40;13.70;;;1.20;26.80;;;;;;4987130;28;20557;-77
2023/01/31 06:02:46;;;;;;;26.40;11.97;;;1.10;27.90;;;;;;4989766;28;20685;-78
2023/01/31 06:05:12;;;;;;;28.20;14.63;;;1.10;31.70;;;;;;4996691;28;20524;-77
2023/01/31 06:07:38;;;;;;;23.40;12.20;;;1.10;31.80;;;;;;4990313;28;20533;-78
2023/01/31 06:10:05;;;;;;;33.67;13.10;;;1.10;31.90;;;;;;4986952;28;20247;-79
2023/01/31 06:12:31;;;;;;;27.43;13.60;;;1.10;31.90;;;;;;4990144;28;20194;-78
2023/01/31 06:14:56;;;;;;;33.33;14.30;;;1.20;31.90;;;;;;4989939;28;20774;-78
2023/01/31 06:17:25;;;;;;;27.30;13.77;;;1.50;32.20;;;;;;4987375;28;20654;-78
2023/01/31 06:19:51;;;;;;;27.13;13.30;;;1.10;31.90;;;;;;4990655;28;20369;-79
2023/01/31 06:22:17;;;;;;;27.70;12.33;;;1.10;31.90;;;;;;4985643;28;20960;-78
2023/01/31 06:24:43;;;;;;;25.90;13.30;;;1.70;32.30;;;;;;4990723;28;20195;-77
2023/01/31 06:27:08;;;;;;;35.97;13.93;;;1.30;32.00;;;;;;4985006;28;20445;-79
2023/01/31 06:29:34;;;;;;;27.40;12.70;;;1.50;32.30;;;;;;4988194;28;20222;-77
2023/01/31 06:31:59;;;;;;;27.90;12.27;;;1.60;32.40;;;;;;4986801;28;20191;-77
2023/01/31 06:34:25;;;;;;;25.77;12.70;;;1.80;32.50;;;;;;4989766;28;20187;-78
2023/01/31 06:36:50;;;;;;;24.80;13.10;;;1.90;32.50;;;;;;4989075;28;20190;-77
2023/01/31 06:39:16;;;;;;;33.50;13.97;;;2.30;32.90;;;;;;4986261;28;20203;-77
2023/01/31 06:41:41;;;;;;;27.33;12.30;;;2.10;32.70;;;;;;4990647;28;20649;-77
2023/01/31 06:44:07;;;;;;;29.73;13.90;;;2.20;32.70;;;;;;4985585;28;20268;-77
2023/01/31 06:46:32;;;;;;;29.83;13.23;;;2.70;33.00;;;;;;4987241;28;20190;-77
2023/01/31 06:48:58;;;;;;;25.83;12.90;;;2.40;32.90;;;;;;4990662;28;20208;-77
2023/01/31 06:51:23;;;;;;;27.17;12.83;;;2.70;33.00;;;;;;4987647;28;20314;-78
2023/01/31 06:53:50;;;;;;;21.30;10.87;;;2.40;32.70;;;;;;4989597;28;20394;-77
2023/01/31 06:56:16;;;;;;;25.17;11.30;;;2.90;33.00;;;;;;4988859;28;20262;-82
2023/01/31 06:58:41;;;;;;;35.70;14.50;;;2.50;32.80;;;;;;4988030;28;20520;-77
2023/01/31 07:01:10;;;;;;;26.73;13.47;;;2.60;32.90;;;;;;4989102;28;20438;-77
2023/01/31 07:03:36;;;;;;;25.90;11.77;;;2.70;32.40;;;;;;4989520;28;20221;-77
2023/01/31 07:06:01;;;;;;;25.60;11.80;;;3.00;29.40;;;;;;4989604;28;20536;-77
2023/01/31 07:08:27;;;;;;;26.87;11.80;;;2.70;28.00;;;;;;4988089;28;20837;-78
2023/01/31 07:10:52;;;;;;;25.00;11.10;;;2.90;26.00;;;;;;4983964;28;20184;-78
2023/01/31 07:13:18;;;;;;;26.00;11.80;;;3.30;25.00;;;;;;4984938;28;20198;-78
2023/01/31 07:15:44;;;;;;;27.50;11.20;;;3.20;23.10;;;;;;4983389;28;20265;-78
2023/01/31 07:18:11;;;;;;;31.90;12.50;;;2.90;23.40;;;;;;4986988;28;20534;-79
2023/01/31 07:20:38;;;;;;;26.50;11.40;;;3.30;22.50;;;;;;4988766;28;20207;-77
2023/01/31 07:23:04;;;;;;;22.80;11.57;;;3.10;24.70;;;;;;4989799;28;20979;-78
2023/01/31 07:25:30;;;;;;;22.33;11.67;;;2.90;23.80;;;;;;4988124;28;20449;-77
2023/01/31 07:27:56;;;;;;;22.87;11.27;;;2.80;23.70;;;;;;4986137;28;20664;-77
2023/01/31 07:30:22;;;;;;;23.97;11.63;;;3.10;25.90;;;;;;4987085;28;20465;-77
2023/01/31 07:32:47;;;;;;;27.13;11.33;;;2.90;29.70;;;;;;4986720;28;20234;-78
2023/01/31 07:35:13;;;;;;;25.17;12.53;;;2.60;32.90;;;;;;4986895;28;20183;-77
2023/01/31 07:37:42;;;;;;;29.60;11.70;;;2.60;32.90;;;;;;4981219;28;20670;-78
2023/01/31 07:40:09;;;;;;;26.17;10.90;;;3.10;33.30;;;;;;4985877;28;20207;-78
2023/01/31 07:42:34;;;;;;;28.67;11.63;;;2.60;33.00;;;;;;4988680;28;20528;-78
2023/01/31 07:45:00;;;;;;;26.07;11.03;;;3.10;29.00;;;;;;4984386;28;20446;-78
2023/01/31 07:47:25;;;;;;;26.90;11.53;;;2.70;30.10;;;;;;4986247;28;20183;-78
2023/01/31 07:49:51;;;;;;;23.13;11.50;;;2.80;28.00;;;;;;4986853;28;20290;-77
2023/01/31 07:52:16;;;;;;;20.97;10.80;;;3.20;25.40;;;;;;4987786;28;20266;-77
2023/01/31 07:54:42;;;;;;;20.70;10.47;;;3.00;21.00;;;;;;4989491;28;20604;-78
2023/01/31 07:57:07;;;;;;;26.70;10.63;;;3.00;18.40;;;;;;4986696;28;20202;-78
2023/01/31 07:59:33;;;;;;;24.83;10.60;;;3.10;19.30;;;;;;4987110;28;20621;-79
2023/01/31 08:04:42;;;;;;;27.27;10.57;;;3.30;12.30;;;;;;4983704;28;20833;-77
2023/01/31 08:07:09;;;;;;;21.50;10.03;;;3.30;12.20;;;;;;4990842;28;20442;-78
2023/01/31 08:09:34;;;;;;;28.07;11.03;;;3.70;9.70;;;;;;4989041;28;20213;-77
2023/01/31 08:12:00;;;;;;;23.00;10.30;;;3.80;10.40;;;;;;4992559;28;20442;-78
2023/01/31 08:14:27;;;;;;;23.27;10.70;;;3.90;9.60;;;;;;4988234;28;20215;-78
2023/01/31 08:16:55;;;;;;;23.53;10.70;;;3.60;9.80;;;;;;4991931;28;20179;-78
2023/01/31 08:19:21;;;;;;;16.60;9.50;;;3.40;9.50;;;;;;4991689;28;20493;-78
2023/01/31 08:21:47;;;;;;;21.03;9.73;;;3.40;9.10;;;;;;4991377;28;20438;-79
2023/01/31 08:24:13;;;;;;;23.63;10.37;;;3.70;9.30;;;;;;4990047;28;20465;-78
2023/01/31 08:26:38;;;;;;;24.20;10.60;;;3.70;13.40;;;;;;4991957;28;20182;-77
2023/01/31 08:29:04;;;;;;;21.53;9.70;;;3.30;11.70;;;;;;4989358;28;20639;-79
2023/01/31 08:31:29;;;;;;;20.37;10.20;;;3.70;11.50;;;;;;4988234;28;20187;-78
2023/01/31 08:33:56;;;;;;;29.80;10.50;;;3.40;12.10;;;;;;4991663;28;20577;-78
2023/01/31 08:36:26;;;;;;;22.67;10.47;;;3.70;12.20;;;;;;4990675;28;20179;-78
2023/01/31 08:38:53;;;;;;;25.50;10.60;;;3.70;11.20;;;;;;4988817;28;20458;-78
2023/01/31 08:41:20;;;;;;;24.13;10.60;;;4.10;8.30;;;;;;4992245;28;20469;-78
2023/01/31 08:43:49;;;;;;;23.53;10.97;;;4.20;6.50;;;;;;4989607;28;20473;-78
2023/01/31 08:46:15;;;;;;;25.23;11.17;;;4.00;6.90;;;;;;4982928;28;20441;-78
2023/01/31 08:48:41;;;;;;;15.77;9.93;;;4.20;3.00;;;;;;4991234;28;20458;-78
2023/01/31 08:51:08;;;;;;;22.70;10.33;;;4.70;1.00;;;;;;4991312;28;20267;-78
2023/01/31 08:53:37;;;;;;;27.37;10.83;;;4.50;1.00;;;;;;4986700;28;20449;-76
2023/01/31 08:56:05;;;;;;;24.60;10.97;;;4.80;1.00;;;;;;4990280;28;20446;-78
2023/01/31 08:58:32;;;;;;;23.17;11.10;;;5.10;1.00;;;;;;4989102;28;20947;-78
2023/01/31 09:01:01;;;;;;;20.13;11.20;;;5.20;1.00;;;;;;4985762;28;20442;-79
2023/01/31 09:03:27;;;;;;;24.60;11.30;;;5.10;1.00;;;;;;4987913;28;20466;-78
2023/01/31 09:05:53;;;;;;;28.30;11.00;;;5.10;1.00;;;;;;4985321;28;20442;-78
2023/01/31 09:08:18;;;;;;;22.87;10.63;;;5.10;1.00;;;;;;4985139;28;20712;-77
2023/01/31 09:10:50;;;;;;;19.33;10.77;;;5.10;1.00;;;;;;4988886;28;20592;-79
2023/01/31 09:13:16;;;;;;;20.80;10.77;;;5.30;1.00;;;;;;4987325;28;20184;-80
2023/01/31 09:15:41;;;;;;;23.60;11.00;;;5.40;1.00;;;;;;4985289;28;20453;-78
2023/01/31 09:18:07;;;;;;;22.00;11.10;;;5.60;1.00;;;;;;4988570;28;20649;-78
2023/01/31 09:20:32;;;;;;;21.40;10.10;;;5.50;1.00;;;;;;4990748;28;20226;-78
2023/01/31 09:22:58;;;;;;;19.83;10.67;;;5.60;1.00;;;;;;4989701;28;20294;-77
2023/01/31 09:25:23;;;;;;;23.63;9.70;;;5.60;1.00;;;;;;4990427;28;20562;-77
2023/01/31 09:27:52;;;;;;;17.27;9.30;;;5.80;1.00;;;;;;4986162;28;20246;-77
2023/01/31 09:30:17;;;;;;;22.63;9.80;;;6.10;1.00;;;;;;4989952;28;20211;-77
2023/01/31 09:32:44;;;;;;;22.57;10.03;;;6.30;1.00;;;;;;4991250;28;20437;-78
2023/01/31 09:35:11;;;;;;;18.80;9.63;;;6.30;1.00;;;;;;4984296;28;20247;-78
2023/01/31 09:37:37;;;;;;;18.80;8.67;;;6.00;1.00;;;;;;4987765;28;20445;-77
2023/01/31 09:40:03;;;;;;;16.67;9.17;;;6.00;1.00;;;;;;4991537;28;20446;-78
2023/01/31 09:42:41;;;;;;;18.73;9.77;;;6.80;1.00;;;;;;4988496;28;20293;-78
2023/01/31 09:45:13;;;;;;;17.80;8.77;;;7.40;1.00;;;;;;4987247;28;20465;-79
2023/01/31 09:47:45;;;;;;;22.90;9.70;;;7.40;1.00;;;;;;4982158;28;20782;-75
2023/01/31 09:50:31;;;;;;;18.30;8.70;;;7.70;1.00;;;;;;4988731;28;20458;-75
2023/01/31 09:52:57;;;;;;;13.90;8.03;;;8.10;1.00;;;;;;4985028;28;20434;-74
2023/01/31 09:55:31;;;;;;;15.20;9.00;;;8.60;1.00;;;;;;4989297;28;20450;-76
2023/01/31 09:58:35;;;;;;;15.77;8.10;;;9.30;1.00;;;;;;4988121;28;20182;-75
2023/01/31 10:01:35;;;;;;;14.73;7.70;;;10.40;1.00;;;;;;4964568;28;20560;-76
2023/01/31 10:04:19;;;;;;;18.20;7.93;;;10.90;1.00;;;;;;4982760;28;20470;-75
2023/01/31 10:07:11;;;;;;;11.57;7.80;;;9.90;1.00;;;;;;4984189;28;20925;-75
2023/01/31 10:09:45;;;;;;;14.83;7.20;;;9.10;1.00;;;;;;4987184;28;20990;-77
2023/01/31 10:12:22;;;;;;;15.27;7.23;;;8.40;1.00;;;;;;4988038;28;21210;-77
2023/01/31 10:15:02;;;;;;;15.87;7.13;;;8.20;1.00;;;;;;4984449;28;20427;-78
2023/01/31 10:17:40;;;;;;;21.30;8.00;;;8.10;1.00;;;;;;4990943;28;20437;-79
2023/01/31 10:20:32;;;;;;;12.23;6.47;;;7.90;1.00;;;;;;4991446;28;20939;-78
2023/01/31 10:23:03;;;;;;;16.87;7.50;;;7.80;1.00;;;;;;4984557;28;20474;-75
2023/01/31 10:25:49;;;;;;;9.27;5.70;;;7.80;1.00;;;;;;4990430;28;20901;-76
2023/01/31 10:28:37;;;;;;;13.73;6.33;;;7.70;1.00;;;;;;4990179;28;20470;-76
2023/01/31 10:31:09;;;;;;;15.27;6.27;;;7.50;1.00;;;;;;5044822;23;20494;-79
2023/01/31 10:34:03;;;;;;;17.03;6.80;;;7.30;1.00;;;;;;4990531;28;20438;-80
2023/01/31 10:36:36;;;;;;;13.27;6.80;;;7.10;1.00;;;;;;4989883;28;20435;-79
2023/01/31 10:39:07;;;;;;;11.97;5.77;;;7.00;1.00;;;;;;4990865;28;20434;-80
2023/01/31 10:41:58;;;;;;;12.30;5.77;;;7.10;1.00;;;;;;4990310;28;20853;-79
2023/01/31 10:44:51;;;;;;;11.17;4.80;;;7.30;1.00;;;;;;4991696;28;20462;-79
2023/01/31 10:47:18;;;;;;;13.90;5.63;;;7.50;1.00;;;;;;4990444;28;20522;-78
2023/01/31 10:49:46;;;;;;;12.00;6.47;;;7.40;1.00;;;;;;4990909;28;20473;-80
2023/01/31 10:52:27;;;;;;;13.07;5.70;;;7.40;1.00;;;;;;4991931;28;20449;-80
2023/01/31 10:55:20;;;;;;;21.83;6.77;;;7.30;1.00;;;;;;4990828;28;20427;-80
2023/01/31 10:57:46;;;;;;;13.03;5.93;;;7.40;1.00;;;;;;4984646;28;20446;-80
2023/01/31 11:00:19;;;;;;;15.13;5.83;;;7.50;1.00;;;;;;4992173;28;20823;-79
2023/01/31 11:02:44;;;;;;;18.37;5.80;;;7.80;1.00;;;;;;4984233;28;20454;-80
2023/01/31 11:05:17;;;;;;;14.57;5.77;;;7.70;1.00;;;;;;4990560;28;20917;-78
2023/01/31 11:07:43;;;;;;;13.60;5.57;;;7.50;1.00;;;;;;4982666;28;20190;-80
2023/01/31 11:10:27;;;;;;;18.20;6.13;;;7.20;1.00;;;;;;5003720;28;20449;-80
2023/01/31 11:13:03;;;;;;;16.77;5.93;;;7.00;1.00;;;;;;5007311;28;20723;-79
2023/01/31 11:15:36;;;;;;;15.67;6.83;;;6.90;1.00;;;;;;4991156;28;20440;-78
2023/01/31 11:18:02;;;;;;;19.70;5.80;;;6.80;1.00;;;;;;4990416;28;20492;-80
2023/01/31 11:20:35;;;;;;;15.43;5.80;;;6.70;1.00;;;;;;4990273;28;21080;-79
2023/01/31 11:23:03;;;;;;;15.53;5.57;;;6.60;1.00;;;;;;4991366;28;20462;-80
2023/01/31 11:25:30;;;;;;;13.77;5.47;;;6.50;1.00;;;;;;4990759;28;20426;-79
2023/01/31 11:28:02;;;;;;;19.37;6.57;;;6.40;1.00;;;;;;4990167;28;20426;-80
2023/01/31 11:30:34;;;;;;;14.40;6.03;;;6.50;1.00;;;;;;4991113;28;20474;-79
2023/01/31 11:33:00;;;;;;;11.90;5.10;;;6.50;1.00;;;;;;4990084;28;20430;-79
2023/01/31 11:35:29;;;;;;;16.27;6.23;;;6.60;1.00;;;;;;4989723;28;20426;-80
2023/01/31 11:37:56;;;;;;;20.63;6.37;;;6.50;1.00;;;;;;4992555;28;20457;-80
2023/01/31 11:40:35;;;;;;;10.03;5.70;;;6.50;1.00;;;;;;4993537;28;20457;-79
2023/01/31 11:43:03;;;;;;;13.60;5.60;;;6.50;1.00;;;;;;4995154;28;20458;-79
2023/01/31 11:45:43;;;;;;;18.93;5.93;;;6.70;1.00;;;;;;4993105;28;20434;-79
2023/01/31 11:48:16;;;;;;;11.63;6.40;;;6.70;1.00;;;;;;4994853;28;20426;-81
2023/01/31 11:50:45;;;;;;;11.67;6.60;;;6.50;1.00;;;;;;4994342;28;20438;-79
2023/01/31 11:53:25;;;;;;;12.73;6.03;;;6.50;1.00;;;;;;4994959;28;20513;-80
2023/01/31 11:55:53;;;;;;;22.17;6.67;;;6.50;1.00;;;;;;4987737;28;20426;-79
2023/01/31 11:58:33;;;;;;;17.13;7.00;;;6.40;1.00;;;;;;4993538;28;21007;-80
2023/01/31 12:01:05;;;;;;;15.13;7.20;;;6.30;1.00;;;;;;5003538;28;20854;-80
2023/01/31 12:03:31;;;;;;;11.57;6.73;;;6.20;1.00;;;;;;4992543;28;21028;-79
2023/01/31 12:06:08;;;;;;;15.97;7.37;;;6.00;1.00;;;;;;4993915;28;20513;-79
2023/01/31 12:08:36;;;;;;;15.13;6.00;;;6.10;1.00;;;;;;4993905;28;20766;-79
2023/01/31 12:11:08;;;;;;;18.07;7.10;;;6.10;1.00;;;;;;4990164;28;20521;-79
2023/01/31 12:13:46;;;;;;;11.50;6.47;;;6.00;1.00;;;;;;4993918;28;20845;-79
2023/01/31 12:16:12;;;;;;;12.30;7.00;;;6.10;1.00;;;;;;4994126;28;20426;-80
2023/01/31 12:18:37;;;;;;;11.73;6.30;;;6.00;1.00;;;;;;4994272;28;20512;-78
2023/01/31 12:21:12;;;;;;;16.10;7.57;;;5.90;1.00;;;;;;4994053;28;20530;-79
2023/01/31 12:24:03;;;;;;;15.57;7.80;;;6.00;1.00;;;;;;4992144;28;20744;-80
2023/01/31 12:26:44;;;;;;;15.37;7.20;;;6.00;1.00;;;;;;4993517;28;20824;-79
2023/01/31 12:29:33;;;;;;;9.67;6.07;;;6.00;1.00;;;;;;4993591;28;20544;-79
2023/01/31 12:32:07;;;;;;;11.93;6.83;;;6.00;1.00;;;;;;5012344;28;20435;-79
2023/01/31 12:35:04;;;;;;;11.30;6.77;;;6.00;1.00;;;;;;4992194;28;20777;-80
2023/01/31 12:37:51;;;;;;;12.80;6.77;;;6.00;1.00;;;;;;4993608;28;20956;-79
2023/01/31 12:40:39;;;;;;;13.40;7.20;;;6.10;1.00;;;;;;4993680;28;20447;-79
2023/01/31 12:43:24;;;;;;;12.80;6.20;;;6.00;1.00;;;;;;5003532;28;20462;-79
2023/01/31 12:45:56;;;;;;;15.07;6.30;;;6.00;1.00;;;;;;4985769;28;20422;-80
2023/01/31 12:48:43;;;;;;;12.30;7.00;;;5.90;1.00;;;;;;4993811;28;20457;-79
2023/01/31 12:51:28;;;;;;;15.63;7.03;;;6.00;1.00;;;;;;4993193;28;20466;-79
2023/01/31 12:54:33;;;;;;;11.73;6.10;;;5.80;1.00;;;;;;4986329;28;20442;-80
2023/01/31 12:57:07;;;;;;;11.03;5.87;;;5.80;1.00;;;;;;4985459;28;20959;-80
2023/01/31 12:59:45;;;;;;;14.13;7.63;;;5.60;1.00;;;;;;4992683;28;20490;-79
2023/01/31 13:02:16;;;;;;;12.60;8.00;;;5.60;1.00;;;;;;4992434;28;20472;-80
2023/01/31 13:05:07;;;;;;;15.67;7.43;;;5.70;1.00;;;;;;4991911;28;20462;-79
2023/01/31 13:07:48;;;;;;;18.43;7.67;;;5.70;1.00;;;;;;4971747;28;20844;-79
2023/01/31 13:10:37;;;;;;;14.37;7.17;;;5.70;1.00;;;;;;4988742;28;20460;-80
2023/01/31 13:13:08;;;;;;;18.73;6.70;;;5.70;1.00;;;;;;4991678;28;20426;-80
2023/01/31 13:15:47;;;;;;;15.37;6.90;;;5.80;1.00;;;;;;4993566;28;20492;-79
2023/01/31 13:18:13;;;;;;;13.90;6.70;;;5.80;1.00;;;;;;4991890;28;20461;-79
2023/01/31 13:20:47;;;;;;;13.03;6.90;;;5.70;1.00;;;;;;4992987;28;21044;-80